createdAt,value
2018-07-30T00:00:05.315Z,41.4
2018-07-30T00:02:12.604Z,41.5
2018-07-30T00:04:05.411Z,41.5
2018-07-30T00:06:05.126Z,41.5
2018-07-30T00:08:05.878Z,41.4
2018-07-30T00:10:05.619Z,41.3
2018-07-30T00:12:05.350Z,41
2018-07-30T00:14:05.125Z,41.1
2018-07-30T00:16:05.902Z,41.4
2018-07-30T00:18:10.882Z,41.5
2018-07-30T00:20:08.101Z,41.3
2018-07-30T00:22:05.310Z,41.3
2018-07-30T00:24:06.171Z,41
2018-07-30T00:26:05.398Z,40.5
2018-07-30T00:28:05.103Z,41.2
2018-07-30T00:30:05.820Z,40.8
2018-07-30T00:32:08.170Z,41.1
2018-07-30T00:34:06.118Z,41.2
2018-07-30T00:36:10.452Z,41.3
2018-07-30T00:38:10.186Z,41.4
2018-07-30T00:40:05.438Z,41.4
2018-07-30T00:42:05.147Z,41
2018-07-30T00:44:08.432Z,40.3
2018-07-30T00:46:07.700Z,41.9
2018-07-30T00:48:05.448Z,41.8
2018-07-30T00:50:10.249Z,41.4
2018-07-30T00:52:05.943Z,41.4
2018-07-30T00:54:05.635Z,41.7
2018-07-30T00:56:05.336Z,41.8
2018-07-30T00:58:05.246Z,41.6
2018-07-30T01:00:06.149Z,41.2
2018-07-30T01:02:08.389Z,41.5
2018-07-30T01:04:07.861Z,40.3
2018-07-30T01:06:05.989Z,40.3
2018-07-30T01:08:05.283Z,41.2
2018-07-30T01:10:08.570Z,41
2018-07-30T01:12:05.513Z,40.9
2018-07-30T01:14:05.204Z,41.4
2018-07-30T01:16:05.901Z,41.2
2018-07-30T01:18:05.213Z,40.7
2018-07-30T01:20:05.892Z,40.7
2018-07-30T01:22:05.607Z,41.6
2018-07-30T01:24:10.350Z,41.5
2018-07-30T01:26:05.040Z,41.4
2018-07-30T01:28:05.806Z,41.7
2018-07-30T01:30:05.481Z,42.2
2018-07-30T01:32:05.145Z,42.2
2018-07-30T01:34:05.812Z,41.9
2018-07-30T01:36:05.466Z,41.7
2018-07-30T01:38:10.222Z,42.1
2018-07-30T01:40:05.926Z,42.1
2018-07-30T01:42:05.656Z,41.4
2018-07-30T01:44:07.939Z,41.7
2018-07-30T01:46:05.642Z,41.7
2018-07-30T01:48:11.008Z,40.8
2018-07-30T01:50:05.264Z,40.9
2018-07-30T01:52:05.531Z,40.7
2018-07-30T01:54:05.279Z,40.2
2018-07-30T01:56:08.469Z,42.6
2018-07-30T01:58:12.768Z,40.8
2018-07-30T02:00:05.468Z,41
2018-07-30T02:02:10.233Z,41
2018-07-30T02:04:05.930Z,41.1
2018-07-30T02:06:05.608Z,41
2018-07-30T02:08:05.281Z,41.8
2018-07-30T02:10:08.018Z,41.2
2018-07-30T02:12:05.707Z,41.2
2018-07-30T02:14:05.396Z,42.3
2018-07-30T02:16:05.631Z,42.3
2018-07-30T02:18:05.713Z,42.4
2018-07-30T02:20:10.456Z,42.1
2018-07-30T02:22:05.180Z,42.1
2018-07-30T02:24:05.865Z,42
2018-07-30T02:26:05.093Z,42
2018-07-30T02:28:05.814Z,41.7
2018-07-30T02:30:08.045Z,42.1
2018-07-30T02:32:05.767Z,42.1
2018-07-30T02:34:06.043Z,42.1
2018-07-30T02:36:05.734Z,42.3
2018-07-30T02:38:05.464Z,42.3
2018-07-30T02:40:05.345Z,42.3
2018-07-30T02:42:05.136Z,42.2
2018-07-30T02:44:05.875Z,42.2
2018-07-30T02:46:05.136Z,41.9
2018-07-30T02:48:05.824Z,42
2018-07-30T02:50:05.519Z,41.1
2018-07-30T02:52:07.780Z,41.5
2018-07-30T02:54:05.536Z,41.6
2018-07-30T02:56:05.277Z,41.4
2018-07-30T02:58:05.548Z,42.3
2018-07-30T03:00:05.775Z,42.2
2018-07-30T03:02:05.430Z,42.4
2018-07-30T03:04:05.759Z,42.8
2018-07-30T03:06:06.073Z,42.8
2018-07-30T03:08:08.329Z,42.4
2018-07-30T03:10:05.051Z,42.4
2018-07-30T03:12:05.246Z,42.3
2018-07-30T03:14:05.953Z,42.3
2018-07-30T03:16:10.719Z,42.3
2018-07-30T03:18:05.621Z,42.3
2018-07-30T03:20:05.297Z,42.3
2018-07-30T03:22:07.536Z,42.1
2018-07-30T03:24:05.280Z,42.2
2018-07-30T03:26:05.970Z,42.7
2018-07-30T03:28:05.647Z,42.5
2018-07-30T03:30:05.903Z,42.5
2018-07-30T03:32:05.664Z,42.1
2018-07-30T03:34:10.475Z,41.4
2018-07-30T03:36:10.234Z,41.8
2018-07-30T03:38:05.940Z,41.8
2018-07-30T03:40:10.719Z,42.8
2018-07-30T03:42:07.946Z,42.8
2018-07-30T03:44:25.970Z,42.7
2018-07-30T03:46:05.786Z,42.7
2018-07-30T03:48:10.581Z,42.4
2018-07-30T03:50:05.302Z,42.5
2018-07-30T03:52:05.015Z,42.4
2018-07-30T03:54:05.715Z,42.1
2018-07-30T03:56:12.950Z,42.3
2018-07-30T03:58:05.340Z,42.3
2018-07-30T04:00:05.755Z,42.3
2018-07-30T04:02:08.565Z,42.3
2018-07-30T04:04:05.360Z,42.3
2018-07-30T04:06:07.978Z,42.3
2018-07-30T04:08:05.820Z,42.3
2018-07-30T04:10:05.580Z,42.4
2018-07-30T04:12:07.827Z,42.4
2018-07-30T04:14:05.552Z,42.4
2018-07-30T04:16:07.876Z,42.4
2018-07-30T04:18:05.807Z,42.4
2018-07-30T04:20:05.495Z,42.4
2018-07-30T04:22:05.774Z,42.4
2018-07-30T04:24:05.626Z,42.4
2018-07-30T04:26:05.427Z,42.3
2018-07-30T04:28:07.671Z,41.1
2018-07-30T04:30:05.326Z,41.1
2018-07-30T04:32:06.029Z,42
2018-07-30T04:34:05.741Z,41.7
2018-07-30T04:36:05.442Z,41.6
2018-07-30T04:38:05.193Z,41.7
2018-07-30T04:40:05.930Z,42.1
2018-07-30T04:42:08.231Z,42
2018-07-30T04:44:05.939Z,42
2018-07-30T04:46:05.621Z,42.3
2018-07-30T04:48:05.315Z,42.2
2018-07-30T04:50:05.016Z,42.6
2018-07-30T04:52:08.399Z,42.8
2018-07-30T04:54:06.652Z,42.8
2018-07-30T04:56:09.325Z,42.4
2018-07-30T04:58:05.597Z,42.5
2018-07-30T05:00:05.898Z,42.9
2018-07-30T05:02:05.174Z,42.7
2018-07-30T05:04:05.839Z,42
2018-07-30T05:06:05.512Z,41.6
2018-07-30T05:08:08.295Z,42.1
2018-07-30T05:10:08.588Z,41.9
2018-07-30T05:12:05.808Z,41.9
2018-07-30T05:14:05.033Z,42
2018-07-30T05:16:08.333Z,42.1
2018-07-30T05:18:05.224Z,42
2018-07-30T05:20:06.073Z,42
2018-07-30T05:22:05.790Z,42.2
2018-07-30T05:24:10.509Z,43.2
2018-07-30T05:26:05.184Z,43.2
2018-07-30T05:28:16.026Z,42.9
2018-07-30T05:30:05.796Z,42.9
2018-07-30T05:32:05.467Z,43.3
2018-07-30T05:34:05.186Z,43.5
2018-07-30T05:36:05.974Z,42.3
2018-07-30T05:38:05.651Z,42.8
2018-07-30T05:40:05.337Z,42.5
2018-07-30T05:42:05.010Z,42.7
2018-07-30T05:44:05.856Z,42.8
2018-07-30T05:46:08.095Z,42.5
2018-07-30T05:48:05.753Z,42.5
2018-07-30T05:50:05.547Z,42.8
2018-07-30T05:52:08.005Z,43.1
2018-07-30T05:54:08.211Z,43.5
2018-07-30T05:56:05.861Z,43.5
2018-07-30T05:58:05.564Z,43.5
2018-07-30T06:00:05.333Z,43.8
2018-07-30T06:02:10.123Z,43.3
2018-07-30T06:04:05.877Z,43.2
2018-07-30T06:06:05.588Z,44.1
2018-07-30T06:08:05.304Z,42.9
2018-07-30T06:10:06.281Z,43.9
2018-07-30T06:12:05.973Z,43.3
2018-07-30T06:14:05.669Z,43.7
2018-07-30T06:16:05.365Z,43.1
2018-07-30T06:18:05.210Z,43.4
2018-07-30T06:20:05.847Z,43.1
2018-07-30T06:22:05.535Z,43.4
2018-07-30T06:24:05.782Z,43.1
2018-07-30T06:26:05.973Z,43.1
2018-07-30T06:28:05.688Z,43.3
2018-07-30T06:30:05.378Z,43.8
2018-07-30T06:32:05.021Z,43.3
2018-07-30T06:34:08.247Z,43.4
2018-07-30T06:36:05.926Z,43.4
2018-07-30T06:38:13.242Z,43.2
2018-07-30T06:40:05.932Z,43.2
2018-07-30T06:42:10.668Z,42.6
2018-07-30T06:44:07.976Z,43.1
2018-07-30T06:46:05.661Z,43
2018-07-30T06:48:09.023Z,43
2018-07-30T06:50:08.316Z,43.5
2018-07-30T06:52:08.582Z,43.2
2018-07-30T06:54:05.304Z,43.2
2018-07-30T06:56:05.997Z,43.3
2018-07-30T06:58:05.692Z,43.1
2018-07-30T07:00:05.948Z,43
2018-07-30T07:02:05.870Z,43.3
2018-07-30T07:04:08.160Z,43.3
2018-07-30T07:06:10.917Z,43.5
2018-07-30T07:08:06.682Z,43.3
2018-07-30T07:10:05.405Z,43.2
2018-07-30T07:12:05.108Z,43.6
2018-07-30T07:14:05.781Z,43.3
2018-07-30T07:16:06.008Z,43.6
2018-07-30T07:18:05.419Z,43.8
2018-07-30T07:20:05.125Z,43.6
2018-07-30T07:22:05.973Z,43.8
2018-07-30T07:24:08.469Z,43.5
2018-07-30T07:26:05.170Z,43.5
2018-07-30T07:28:05.644Z,43.5
2018-07-30T07:30:05.942Z,43.5
2018-07-30T07:32:10.207Z,43.3
2018-07-30T07:34:10.961Z,43.3
2018-07-30T07:36:05.648Z,43.3
2018-07-30T07:38:07.887Z,43.8
2018-07-30T07:40:05.619Z,43.8
2018-07-30T07:42:05.402Z,43.7
2018-07-30T07:44:05.563Z,43.7
2018-07-30T07:46:05.791Z,43.6
2018-07-30T07:48:05.056Z,43.5
2018-07-30T07:50:06.198Z,43.5
2018-07-30T07:52:05.436Z,43.4
2018-07-30T07:54:07.682Z,43.5
2018-07-30T07:56:05.362Z,43.4
2018-07-30T07:58:05.059Z,43.3
2018-07-30T08:00:05.809Z,43.4
2018-07-30T08:02:05.618Z,43.7
2018-07-30T08:04:05.435Z,43.4
2018-07-30T08:06:05.326Z,43.4
2018-07-30T08:08:05.126Z,43.5
2018-07-30T08:10:05.816Z,43.4
2018-07-30T08:12:05.058Z,43.5
2018-07-30T08:14:07.838Z,43.6
2018-07-30T08:16:05.813Z,43.6
2018-07-30T08:18:05.840Z,43.7
2018-07-30T08:20:10.610Z,43.6
2018-07-30T08:22:05.647Z,43.5
2018-07-30T08:24:05.749Z,43.9
2018-07-30T08:26:08.169Z,43.5
2018-07-30T08:28:05.434Z,43.5
2018-07-30T08:30:05.206Z,43.7
2018-07-30T08:32:05.194Z,43.3
2018-07-30T08:34:05.930Z,43.5
2018-07-30T08:36:05.609Z,43.5
2018-07-30T08:38:05.312Z,43.3
2018-07-30T08:40:06.097Z,43.5
2018-07-30T08:42:05.838Z,43.3
2018-07-30T08:44:05.606Z,43.3
2018-07-30T08:46:05.322Z,43.3
2018-07-30T08:48:05.995Z,43.3
2018-07-30T08:50:10.710Z,43.3
2018-07-30T08:52:05.938Z,43.3
2018-07-30T08:54:08.184Z,43.6
2018-07-30T08:56:08.360Z,43.6
2018-07-30T08:58:05.570Z,43.6
2018-07-30T09:00:12.951Z,43.8
2018-07-30T09:02:05.719Z,43.6
2018-07-30T09:04:07.950Z,44
2018-07-30T09:06:05.673Z,44
2018-07-30T09:08:05.349Z,43.4
2018-07-30T09:10:05.032Z,43.4
2018-07-30T09:12:05.708Z,42.8
2018-07-30T09:14:05.911Z,43.5
2018-07-30T09:16:05.122Z,43.5
2018-07-30T09:18:08.640Z,43.4
2018-07-30T09:20:05.190Z,43.3
2018-07-30T09:22:05.906Z,43
2018-07-30T09:24:10.669Z,43.5
2018-07-30T09:26:07.869Z,43.2
2018-07-30T09:28:05.580Z,43.2
2018-07-30T09:30:05.309Z,43.2
2018-07-30T09:32:06.043Z,43.7
2018-07-30T09:34:05.719Z,43
2018-07-30T09:36:05.390Z,43.3
2018-07-30T09:38:05.100Z,43.5
2018-07-30T09:40:05.355Z,43.2
2018-07-30T09:42:05.031Z,43.1
2018-07-30T09:44:05.709Z,43.1
2018-07-30T09:46:05.394Z,43.5
2018-07-30T09:48:10.171Z,43
2018-07-30T09:50:05.917Z,43.1
2018-07-30T09:52:05.741Z,42.4
2018-07-30T09:54:11.030Z,42.9
2018-07-30T09:56:05.881Z,42.6
2018-07-30T09:58:05.882Z,42.8
2018-07-30T10:00:05.619Z,43
2018-07-30T10:02:05.856Z,42.9
2018-07-30T10:04:05.555Z,42.8
2018-07-30T10:06:07.825Z,43
2018-07-30T10:08:05.642Z,43.1
2018-07-30T10:10:05.333Z,42.8
2018-07-30T10:12:05.145Z,43.1
2018-07-30T10:14:07.970Z,42.9
2018-07-30T10:16:08.199Z,43.1
2018-07-30T10:18:05.451Z,43.1
2018-07-30T10:20:08.290Z,42.5
2018-07-30T10:22:05.529Z,42.5
2018-07-30T10:24:05.330Z,42.8
2018-07-30T10:26:05.080Z,42.8
2018-07-30T10:28:05.779Z,42.8
2018-07-30T10:30:05.462Z,42.6
2018-07-30T10:32:05.200Z,42.7
2018-07-30T10:34:08.502Z,43
2018-07-30T10:36:07.742Z,42.4
2018-07-30T10:38:08.663Z,43
2018-07-30T10:40:05.963Z,43.1
2018-07-30T10:42:08.190Z,42.7
2018-07-30T10:44:10.931Z,42.9
2018-07-30T10:46:10.678Z,43.2
2018-07-30T10:48:05.965Z,43.4
2018-07-30T10:50:05.690Z,43.3
2018-07-30T10:52:05.456Z,43.1
2018-07-30T10:54:05.292Z,43
2018-07-30T10:56:06.030Z,42.8
2018-07-30T10:58:07.810Z,42.9
2018-07-30T11:00:05.539Z,42.9
2018-07-30T11:02:05.247Z,42.6
2018-07-30T11:04:05.516Z,42.6
2018-07-30T11:06:05.245Z,42.8
2018-07-30T11:08:08.457Z,42.7
2018-07-30T11:10:05.142Z,42.7
2018-07-30T11:12:05.819Z,43.2
2018-07-30T11:14:08.101Z,43
2018-07-30T11:16:08.357Z,42
2018-07-30T11:18:05.233Z,41.8
2018-07-30T11:20:05.488Z,41.8
2018-07-30T11:22:05.138Z,42.6
2018-07-30T11:24:08.346Z,43.2
2018-07-30T11:26:12.662Z,43.4
2018-07-30T11:28:05.738Z,43.2
2018-07-30T11:30:05.171Z,43.5
2018-07-30T11:32:05.944Z,43.6
2018-07-30T11:34:08.194Z,43.7
2018-07-30T11:36:08.466Z,43.6
2018-07-30T11:38:05.175Z,43.6
2018-07-30T11:40:10.688Z,43.8
2018-07-30T11:42:05.458Z,43.9
2018-07-30T11:44:05.245Z,44
2018-07-30T11:46:05.933Z,44
2018-07-30T11:48:05.649Z,44.1
2018-07-30T11:50:05.381Z,44.1
2018-07-30T11:52:07.691Z,44.1
2018-07-30T11:54:05.567Z,44.1
2018-07-30T11:56:05.508Z,44.1
2018-07-30T11:58:10.728Z,44.1
2018-07-30T12:00:08.578Z,44.3
2018-07-30T12:02:05.456Z,44.2
2018-07-30T12:04:05.183Z,44.2
2018-07-30T12:06:07.120Z,44.3
2018-07-30T12:08:05.554Z,44.2
2018-07-30T12:10:06.471Z,44.2
2018-07-30T12:12:07.669Z,44.3
2018-07-30T12:14:05.934Z,44.3
2018-07-30T12:16:08.317Z,44.3
2018-07-30T12:18:05.790Z,44.3
2018-07-30T12:20:05.673Z,44.3
2018-07-30T12:22:05.911Z,44.5
2018-07-30T12:24:05.180Z,44.3
2018-07-30T12:26:08.422Z,44.3
2018-07-30T12:28:05.515Z,44.3
2018-07-30T12:30:05.404Z,44.5
2018-07-30T12:32:12.827Z,44.3
2018-07-30T12:34:05.594Z,44.3
2018-07-30T12:36:05.828Z,44.4
2018-07-30T12:38:05.654Z,44.4
2018-07-30T12:40:05.985Z,44.5
2018-07-30T12:42:08.201Z,44.6
2018-07-30T12:44:05.323Z,44.4
2018-07-30T12:46:06.096Z,44.5
2018-07-30T12:48:11.444Z,44.4
2018-07-30T12:50:05.136Z,44.4
2018-07-30T12:52:05.862Z,44.7
2018-07-30T12:54:06.564Z,44.4
2018-07-30T12:56:05.277Z,44.7
2018-07-30T12:58:05.995Z,44.6
2018-07-30T13:00:05.639Z,44.6
2018-07-30T13:02:05.332Z,44.6
2018-07-30T13:04:05.033Z,44.6
2018-07-30T13:06:08.933Z,44.6
2018-07-30T13:08:05.215Z,44.6
2018-07-30T13:10:05.952Z,44.6
2018-07-30T13:12:05.656Z,44.7
2018-07-30T13:14:07.908Z,44.7
2018-07-30T13:16:05.121Z,44.7
2018-07-30T13:18:05.543Z,44.6
2018-07-30T13:20:05.189Z,44.7
2018-07-30T13:22:05.917Z,44.7
2018-07-30T13:24:05.683Z,44.6
2018-07-30T13:26:05.433Z,44.6
2018-07-30T13:28:05.671Z,44.6
2018-07-30T13:30:12.934Z,44.8
2018-07-30T13:32:10.195Z,44.8
2018-07-30T13:34:05.869Z,44.6
2018-07-30T13:36:05.523Z,44.8
2018-07-30T13:38:05.820Z,44.7
2018-07-30T13:40:05.555Z,44.8
2018-07-30T13:42:07.802Z,44.5
2018-07-30T13:44:05.455Z,44.6
2018-07-30T13:46:05.643Z,44.6
2018-07-30T13:48:05.355Z,44.7
2018-07-30T13:50:05.102Z,44.7
2018-07-30T13:52:05.348Z,44.6
2018-07-30T13:54:05.050Z,44.6
2018-07-30T13:56:05.764Z,44.8
2018-07-30T13:58:05.617Z,44.7
2018-07-30T14:00:05.525Z,44.8
2018-07-30T14:02:05.276Z,44.7
2018-07-30T14:04:06.056Z,44.8
2018-07-30T14:06:05.841Z,44.8
2018-07-30T14:08:08.291Z,44.9
2018-07-30T14:10:05.972Z,44.9
2018-07-30T14:12:05.693Z,45
2018-07-30T14:14:08.214Z,45
2018-07-30T14:16:05.988Z,44.9
2018-07-30T14:18:08.517Z,44.9
2018-07-30T14:20:05.878Z,44.9
2018-07-30T14:22:05.868Z,44.9
2018-07-30T14:24:05.539Z,44.9
2018-07-30T14:26:05.185Z,45.1
2018-07-30T14:28:05.604Z,44.9
2018-07-30T14:30:07.905Z,45.2
2018-07-30T14:32:08.240Z,45.2
2018-07-30T14:34:06.045Z,45.2
2018-07-30T14:36:05.757Z,45.2
2018-07-30T14:38:13.171Z,45.2
2018-07-30T14:40:05.911Z,45.1
2018-07-30T14:42:08.178Z,45.1
2018-07-30T14:44:08.463Z,45.2
2018-07-30T14:46:05.206Z,45.2
2018-07-30T14:48:05.917Z,45.2
2018-07-30T14:50:07.634Z,45.3
2018-07-30T14:52:07.885Z,45.1
2018-07-30T14:54:05.608Z,45.1
2018-07-30T14:56:05.272Z,45.1
2018-07-30T14:58:05.982Z,45.1
2018-07-30T15:00:15.757Z,45.1
2018-07-30T15:02:05.440Z,45.2
2018-07-30T15:04:12.716Z,45.1
2018-07-30T15:06:05.738Z,45.1
2018-07-30T15:08:05.605Z,45.3
2018-07-30T15:10:05.349Z,45.3
2018-07-30T15:12:05.149Z,45.3
2018-07-30T15:14:07.586Z,45.2
2018-07-30T15:16:05.315Z,45.2
2018-07-30T15:18:07.715Z,45.1
2018-07-30T15:20:10.532Z,45.2
2018-07-30T15:22:05.372Z,45.2
2018-07-30T15:24:05.085Z,45.1
2018-07-30T15:26:05.857Z,45
2018-07-30T15:28:05.598Z,45.1
2018-07-30T15:30:05.290Z,45.2
2018-07-30T15:32:05.975Z,45.1
2018-07-30T15:34:05.768Z,45.1
2018-07-30T15:36:05.448Z,45.2
2018-07-30T15:38:05.166Z,45.2
2018-07-30T15:40:05.356Z,45.1
2018-07-30T15:42:05.036Z,45.3
2018-07-30T15:44:05.719Z,45.2
2018-07-30T15:46:05.966Z,45.2
2018-07-30T15:48:08.168Z,45.4
2018-07-30T15:50:05.858Z,45.2
2018-07-30T15:52:05.872Z,45.2
2018-07-30T15:54:05.537Z,45.2
2018-07-30T15:56:05.266Z,45.2
2018-07-30T15:58:06.016Z,45.3
2018-07-30T16:00:05.705Z,45.2
2018-07-30T16:02:05.420Z,45.4
2018-07-30T16:04:07.657Z,45.3
2018-07-30T16:06:05.922Z,45.4
2018-07-30T16:08:05.610Z,45.3
2018-07-30T16:10:07.872Z,45.3
2018-07-30T16:12:07.660Z,45.4
2018-07-30T16:14:05.549Z,45.4
2018-07-30T16:16:05.213Z,45.5
2018-07-30T16:18:05.081Z,45.5
2018-07-30T16:20:05.861Z,45.3
2018-07-30T16:22:13.192Z,45.4
2018-07-30T16:24:05.846Z,45.4
2018-07-30T16:26:05.505Z,45.4
2018-07-30T16:28:05.291Z,45.5
2018-07-30T16:30:05.998Z,45.4
2018-07-30T16:32:05.664Z,45.4
2018-07-30T16:34:07.908Z,45.2
2018-07-30T16:36:05.633Z,45.4
2018-07-30T16:38:05.578Z,45.3
2018-07-30T16:40:05.287Z,45.4
2018-07-30T16:42:05.716Z,45.4
2018-07-30T16:44:05.064Z,45.4
2018-07-30T16:46:05.773Z,45.4
2018-07-30T16:48:05.474Z,45.3
2018-07-30T16:50:07.749Z,45.3
2018-07-30T16:52:05.465Z,45.3
2018-07-30T16:54:05.729Z,45.3
2018-07-30T16:56:05.431Z,45.3
2018-07-30T16:58:05.177Z,45.3
2018-07-30T17:00:05.883Z,45.3
2018-07-30T17:02:05.108Z,45.3
2018-07-30T17:04:05.820Z,45.3
2018-07-30T17:06:05.721Z,45.3
2018-07-30T17:08:05.394Z,45.4
2018-07-30T17:10:07.621Z,45.3
2018-07-30T17:12:05.309Z,45.3
2018-07-30T17:14:05.545Z,45.3
2018-07-30T17:16:05.306Z,45.5
2018-07-30T17:18:05.192Z,45.5
2018-07-30T17:20:05.437Z,45.3
2018-07-30T17:22:08.230Z,45.5
2018-07-30T17:24:11.007Z,45.3
2018-07-30T17:26:05.371Z,45.3
2018-07-30T17:28:05.096Z,45.5
2018-07-30T17:30:05.896Z,45.3
2018-07-30T17:32:05.864Z,45.5
2018-07-30T17:34:05.547Z,45.5
2018-07-30T17:36:05.235Z,45.3
2018-07-30T17:38:06.009Z,45.4
2018-07-30T17:40:13.069Z,45.4
2018-07-30T17:42:05.814Z,45.4
2018-07-30T17:44:05.700Z,45.5
2018-07-30T17:46:05.364Z,45.5
2018-07-30T17:48:13.152Z,45.5
2018-07-30T17:50:05.918Z,45.5
2018-07-30T17:52:07.736Z,45.5
2018-07-30T17:54:07.953Z,45.5
2018-07-30T17:56:05.610Z,45.5
2018-07-30T17:58:05.291Z,45.5
2018-07-30T18:00:05.980Z,45.4
2018-07-30T18:02:05.252Z,45.6
2018-07-30T18:04:08.525Z,45.5
2018-07-30T18:06:07.728Z,45.6
2018-07-30T18:08:05.463Z,45.4
2018-07-30T18:10:05.213Z,45.4
2018-07-30T18:12:05.934Z,45.6
2018-07-30T18:14:08.191Z,45.4
2018-07-30T18:16:05.117Z,45.4
2018-07-30T18:18:08.506Z,45.6
2018-07-30T18:20:07.799Z,45.6
2018-07-30T18:22:05.596Z,45.6
2018-07-30T18:24:05.232Z,45.6
2018-07-30T18:26:08.471Z,45.6
2018-07-30T18:28:05.279Z,45.6
2018-07-30T18:30:07.538Z,45.6
2018-07-30T18:32:05.978Z,45.6
2018-07-30T18:34:06.302Z,45.6
2018-07-30T18:36:06.025Z,45.5
2018-07-30T18:38:05.756Z,45.6
2018-07-30T18:40:05.479Z,45.5
2018-07-30T18:42:05.319Z,45.6
2018-07-30T18:44:05.129Z,45.7
2018-07-30T18:46:05.860Z,45.6
2018-07-30T18:48:05.044Z,45.7
2018-07-30T18:50:05.731Z,45.5
2018-07-30T18:52:11.161Z,45.6
2018-07-30T18:54:05.409Z,45.7
2018-07-30T18:56:05.608Z,45.6
2018-07-30T18:58:05.367Z,45.5
2018-07-30T19:00:07.624Z,45.5
2018-07-30T19:02:05.300Z,45.5
2018-07-30T19:04:06.020Z,45.5
2018-07-30T19:06:05.739Z,45.7
2018-07-30T19:08:05.429Z,45.8
2018-07-30T19:10:05.732Z,45.7
2018-07-30T19:12:05.438Z,45.7
2018-07-30T19:14:05.116Z,45.7
2018-07-30T19:16:06.107Z,45.7
2018-07-30T19:18:05.124Z,45.7
2018-07-30T19:20:05.815Z,45.6
2018-07-30T19:22:08.085Z,45.6
2018-07-30T19:24:05.985Z,45.5
2018-07-30T19:26:08.369Z,45.5
2018-07-30T19:28:05.103Z,45.5
2018-07-30T19:30:05.764Z,45.6
2018-07-30T19:32:05.509Z,45.7
2018-07-30T19:34:05.765Z,45.8
2018-07-30T19:36:05.451Z,45.7
2018-07-30T19:38:05.114Z,45.5
2018-07-30T19:40:05.863Z,45.7
2018-07-30T19:42:05.640Z,45.7
2018-07-30T19:44:07.992Z,45.8
2018-07-30T19:46:08.527Z,45.5
2018-07-30T19:48:10.361Z,45.5
2018-07-30T19:50:05.772Z,45.5
2018-07-30T19:52:05.529Z,45.6
2018-07-30T19:54:10.892Z,45
2018-07-30T19:56:06.085Z,44.9
2018-07-30T19:58:07.644Z,44.8
2018-07-30T20:00:06.112Z,44.2
2018-07-30T20:02:06.376Z,43.7
2018-07-30T20:04:08.241Z,43.6
2018-07-30T20:06:08.783Z,43.5
2018-07-30T20:08:05.777Z,43.6
2018-07-30T20:10:05.794Z,43.8
2018-07-30T20:12:05.966Z,43.4
2018-07-30T20:14:05.838Z,43.6
2018-07-30T20:16:08.064Z,43.6
2018-07-30T20:18:06.137Z,43.4
2018-07-30T20:20:06.229Z,43.5
2018-07-30T20:22:08.446Z,43.3
2018-07-30T20:24:05.066Z,43.3
2018-07-30T20:26:05.776Z,43.4
2018-07-30T20:28:08.077Z,43.6
2018-07-30T20:30:08.331Z,43.9
2018-07-30T20:32:04.974Z,43.7
2018-07-30T20:34:05.698Z,43.9
2018-07-30T20:36:05.361Z,44.1
2018-07-30T20:38:05.040Z,44.1
2018-07-30T20:40:05.252Z,44.1
2018-07-30T20:42:06.032Z,43.9
2018-07-30T20:44:10.744Z,43.7
2018-07-30T20:46:05.508Z,43.8
2018-07-30T20:48:05.246Z,43.9
2018-07-30T20:50:08.477Z,43.8
2018-07-30T20:52:05.169Z,43.8
2018-07-30T20:54:05.382Z,43.6
2018-07-30T20:56:08.084Z,43.8
2018-07-30T20:58:05.804Z,43.8
2018-07-30T21:00:05.487Z,43.7
2018-07-30T21:02:05.166Z,40.5
2018-07-30T21:04:06.066Z,43.7
2018-07-30T21:06:08.328Z,43.7
2018-07-30T21:08:12.715Z,43.8
2018-07-30T21:10:08.094Z,43.9
2018-07-30T21:12:05.754Z,43.9
2018-07-30T21:14:15.641Z,44.1
2018-07-30T21:16:05.888Z,44
2018-07-30T21:18:05.756Z,44
2018-07-30T21:20:05.405Z,44
2018-07-30T21:22:05.143Z,44
2018-07-30T21:24:06.815Z,43.8
2018-07-30T21:26:05.554Z,43.8
2018-07-30T21:28:11.333Z,43.8
2018-07-30T21:30:07.478Z,43.8
2018-07-30T21:32:05.214Z,43.5
2018-07-30T21:34:07.737Z,43.5
2018-07-30T21:36:05.400Z,43.3
2018-07-30T21:38:05.471Z,43.5
2018-07-30T21:40:05.174Z,43.5
2018-07-30T21:42:05.994Z,43.5
2018-07-30T21:44:05.702Z,43.7
2018-07-30T21:46:10.467Z,43.5
2018-07-30T21:48:06.143Z,43.5
2018-07-30T21:50:08.641Z,43.6
2018-07-30T21:52:10.417Z,43.6
2018-07-30T21:54:10.269Z,43.8
2018-07-30T21:56:10.117Z,43.7
2018-07-30T21:58:07.977Z,43.8
2018-07-30T22:00:05.674Z,43.8
2018-07-30T22:02:05.582Z,43.9
2018-07-30T22:04:05.267Z,43.9
2018-07-30T22:06:05.012Z,44.1
2018-07-30T22:08:05.712Z,44.1
2018-07-30T22:10:05.464Z,44
2018-07-30T22:12:05.267Z,44.2
2018-07-30T22:14:05.211Z,44.2
2018-07-30T22:16:16.079Z,44.2
2018-07-30T22:18:05.997Z,44.2
2018-07-30T22:20:08.219Z,44.3
2018-07-30T22:22:05.950Z,44.3
2018-07-30T22:24:07.750Z,44.6
2018-07-30T22:26:05.443Z,44.3
2018-07-30T22:28:05.367Z,44.4
2018-07-30T22:30:05.049Z,44.2
2018-07-30T22:32:08.252Z,44.5
2018-07-30T22:34:05.986Z,44.5
2018-07-30T22:36:13.477Z,44.4
2018-07-30T22:38:05.195Z,44.4
2018-07-30T22:40:10.961Z,44
2018-07-30T22:42:05.651Z,44
2018-07-30T22:44:05.309Z,44.2
2018-07-30T22:46:07.642Z,44.7
2018-07-30T22:48:08.308Z,44.7
2018-07-30T22:50:13.301Z,44.5
2018-07-30T22:52:05.597Z,44.5
2018-07-30T22:54:05.368Z,44.5
2018-07-30T22:56:08.149Z,44.4
2018-07-30T22:58:05.487Z,44.4
2018-07-30T23:00:05.222Z,44.8
2018-07-30T23:02:05.911Z,45
2018-07-30T23:04:05.622Z,45.1
2018-07-30T23:06:05.335Z,45.4
2018-07-30T23:08:07.587Z,45.6
2018-07-30T23:10:05.317Z,45.6
2018-07-30T23:12:07.549Z,45.9
2018-07-30T23:14:05.242Z,45.9
2018-07-30T23:16:06.008Z,46.3
2018-07-30T23:18:07.646Z,46.8
2018-07-30T23:20:05.879Z,46.6
2018-07-30T23:22:05.555Z,46.7
2018-07-30T23:24:05.209Z,46.8
2018-07-30T23:26:05.944Z,46.7
2018-07-30T23:28:05.644Z,46.9
2018-07-30T23:30:05.292Z,47
2018-07-30T23:32:05.962Z,47.1
2018-07-30T23:34:05.686Z,47.2
2018-07-30T23:36:05.917Z,47.2
2018-07-30T23:38:10.807Z,47.2
2018-07-30T23:40:05.140Z,47.2
2018-07-30T23:42:05.924Z,47.2
2018-07-30T23:44:08.250Z,47.1
2018-07-30T23:46:10.247Z,47.3
2018-07-30T23:48:08.457Z,47.3
2018-07-30T23:50:05.374Z,47.5
2018-07-30T23:52:05.060Z,47.5
2018-07-30T23:54:05.832Z,47.4
2018-07-30T23:56:05.527Z,47.3
2018-07-30T23:58:05.287Z,47.4
